Pagrindinis puslapis
METAR-TAF:

METAR-TAF

Oro uostai :

Giumri, Armėnija

platuma: 40-45-01N, ilguma: 043-51-33E, Aukštis: 1524 m

Dabartinis oras

Ataskaita buvo paskelbta 35 minutes, ne 16:30 UTC
Vėjas 13 kt iš Šiaurės Rytų
Temperatūra 22°C
Drėgmė 29%
Slėgis 1019 hPa
Matomumas 10 km arba daugiau

METAR: UDSG 031630Z 04013KT 9999 NSC 22/03 Q1019 R02/////// NOSIG

Laikas: 21:05 (17:05 UTC)

Prognozė

Ataskaita buvo paskelbta 6 valandos ir 3 minutes, ne 11:02 UTC
Prognozė galioja nuo 03 metu 12 UTC su 04 metu 12 UTC
Vėjas 8 kt iš Šiaurės/Šiaurės Rytų
Matomumas 10 km arba daugiau
Mažai debesys ne aukštis 5000 ft
Laikinai
nuo 03 metu 12 UTC su 03 metu 21 UTC
Vėjas 18 kt iš Rytų su gūsio iki 28 kt

TAF: UDSG 031102Z 0312/0412 02008KT 9999 FEW050 TEMPO 0312/0321 08018G28KT

Orai ataskaitas ir orų prognozės (METAR, TAF).

turimą stotys yra geltonos ir raudonos taškus žemėlapyje.

Perkelti pele per norėdami pamatyti stoties vardą.

Tada spustelėkite, norėdami matyti oro stebėjimo ir prognozės.

Norėdami pakeisti žemėlapį: spustelėkite ant žalios mygtukų su juodo kryžiaus žemyn,; žalią mygtuką su brūkšneliu, jei norite nutolinti; arba žalių rodyklių gretimoms žemėlapius.


METAR-TAF: